Time;durP1;ratioP1;P1;durP2;ratioP2;P2;SDS_P1;SDS_P2;PMS_P1;PMS_P2;Temp;Humidity;BMP_temperature;BMP_pressure;BME280_temperature;BME280_humidity;BME280_pressure;Samples;Min_cycle;Max_cycle;Signal;HPM_P1;HPM_P2
2023/08/22 00:01:20;;;;;;;9.90;8.98;;;;;;;22.75;81.67;64355.00;5003969;28;20191;-78
2023/08/22 00:03:47;;;;;;;9.45;8.40;;;;;;;22.75;80.37;64355.00;5023772;28;20423;-77
2023/08/22 00:06:15;;;;;;;8.80;8.10;;;;;;;22.71;80.53;64356.03;5002095;28;20199;-79
2023/08/22 00:08:42;;;;;;;9.35;8.55;;;;;;;22.65;80.29;64347.13;4994983;28;20274;-78
2023/08/22 00:11:10;;;;;;;11.15;9.60;;;;;;;22.67;80.24;64349.22;5012119;28;20203;-79
2023/08/22 00:13:38;;;;;;;9.20;8.27;;;;;;;22.60;80.89;64341.91;5009454;28;20222;-78
2023/08/22 00:16:05;;;;;;;10.75;8.55;;;;;;;22.64;81.11;64346.63;5016992;28;20217;-78
2023/08/22 00:18:32;;;;;;;9.40;8.55;;;;;;;22.64;81.65;64351.28;5008316;28;20354;-78
2023/08/22 00:20:59;;;;;;;9.82;8.93;;;;;;;22.59;82.04;64343.47;5020506;28;20241;-77
2023/08/22 00:23:26;;;;;;;9.38;8.50;;;;;;;22.59;82.14;64346.06;5014316;28;20238;-80
2023/08/22 00:25:54;;;;;;;9.82;8.98;;;;;;;22.63;82.13;64342.97;5019737;28;20206;-81
2023/08/22 00:28:21;;;;;;;9.07;8.38;;;;;;;22.65;82.48;64341.94;5009087;28;20223;-78
2023/08/22 00:30:49;;;;;;;8.68;7.90;;;;;;;22.67;82.72;64351.84;5031422;28;20210;-78
2023/08/22 00:33:16;;;;;;;8.27;7.53;;;;;;;22.59;83.64;64341.38;5020497;28;20222;-80
2023/08/22 00:35:43;;;;;;;12.68;8.13;;;;;;;22.56;83.96;64337.72;5019459;28;20206;-80
2023/08/22 00:38:11;;;;;;;9.48;8.68;;;;;;;22.56;84.05;64337.72;5010956;28;20223;-78
2023/08/22 00:40:38;;;;;;;11.02;9.90;;;;;;;22.57;83.90;64338.78;5020084;28;20278;-78
2023/08/22 00:43:05;;;;;;;9.07;8.38;;;;;;;22.60;83.76;64339.84;5022304;28;20253;-77
2023/08/22 00:45:32;;;;;;;10.00;8.95;;;;;;;22.62;83.53;64344.00;5018031;28;20223;-78
2023/08/22 00:48:01;;;;;;;10.50;8.82;;;;;;;22.56;84.80;64338.25;5006831;28;20203;-78
2023/08/22 00:50:29;;;;;;;9.73;8.77;;;;;;;22.51;84.50;64332.47;5023023;28;20205;-78
2023/08/22 00:52:56;;;;;;;10.10;9.05;;;;;;;22.48;85.12;64329.88;5027686;28;20269;-78
2023/08/22 00:55:24;;;;;;;9.27;8.50;;;;;;;22.51;85.27;64335.06;5005695;28;20226;-77
2023/08/22 00:57:51;;;;;;;9.50;8.70;;;;;;;22.45;85.51;64321.53;5019804;28;20198;-77
2023/08/22 01:00:18;;;;;;;9.23;8.43;;;;;;;22.39;85.63;64319.94;5008393;28;20203;-77
2023/08/22 01:02:45;;;;;;;9.23;8.52;;;;;;;22.42;85.52;64323.59;5022630;28;20256;-76
2023/08/22 01:05:15;;;;;;;9.23;8.35;;;;;;;22.40;85.53;64318.91;5011823;28;20214;-77
2023/08/22 01:07:49;;;;;;;10.13;9.13;;;;;;;22.35;85.63;64318.34;5018494;28;20206;-76
2023/08/22 01:10:20;;;;;;;9.23;8.35;;;;;;;22.33;85.88;64311.06;5008263;28;20194;-77
2023/08/22 01:12:56;;;;;;;9.98;9.05;;;;;;;22.35;85.40;64315.75;5019848;28;20214;-77
2023/08/22 01:15:26;;;;;;;9.15;8.25;;;;;;;22.34;85.48;64312.13;5003123;28;20217;-79
2023/08/22 01:17:54;;;;;;;10.70;8.35;;;;;;;22.25;85.93;64307.91;5021566;28;20200;-77
2023/08/22 01:20:24;;;;;;;9.60;8.85;;;;;;;22.25;85.55;64308.41;5007534;28;20314;-78
2023/08/22 01:22:53;;;;;;;11.30;8.73;;;;;;;22.29;85.42;64309.50;5022909;28;20233;-77
2023/08/22 01:25:20;;;;;;;9.60;8.52;;;;;;;22.28;85.15;64311.03;5025974;28;20613;-78
2023/08/22 01:28:08;;;;;;;9.82;8.93;;;;;;;22.24;85.33;64301.66;5005601;28;20209;-77
2023/08/22 01:30:45;;;;;;;10.15;9.15;;;;;;;22.17;86.39;64294.34;5005849;28;20199;-77
2023/08/22 01:33:16;;;;;;;11.85;9.23;;;;;;;22.19;85.58;64304.75;5024022;28;20538;-77
2023/08/22 01:35:49;;;;;;;8.75;8.05;;;;;;;22.16;85.78;64295.91;5008762;28;20224;-79
2023/08/22 01:38:20;;;;;;;8.50;7.80;;;;;;;22.12;85.50;64291.72;5022073;28;20256;-77
2023/08/22 01:40:49;;;;;;;9.32;8.50;;;;;;;22.11;85.55;64288.06;4999203;28;20254;-77
2023/08/22 01:43:18;;;;;;;9.32;8.18;;;;;;;22.10;85.81;64284.44;5022288;28;20237;-76
2023/08/22 01:45:46;;;;;;;9.82;8.75;;;;;;;22.06;85.98;64285.97;5020112;28;20218;-77
2023/08/22 01:48:13;;;;;;;9.27;8.38;;;;;;;22.00;86.64;64271.41;5012148;28;20218;-78
2023/08/22 01:50:40;;;;;;;10.65;8.27;;;;;;;22.02;85.93;64276.59;5010822;28;20282;-78
2023/08/22 01:53:07;;;;;;;12.40;8.93;;;;;;;21.95;85.99;64271.34;5026478;28;20226;-77
2023/08/22 01:55:35;;;;;;;9.60;8.80;;;;;;;21.97;86.70;64273.44;5014510;28;20205;-77
2023/08/22 01:58:04;;;;;;;8.18;7.47;;;;;;;21.98;86.22;64271.91;5007541;28;20210;-77
2023/08/22 02:00:31;;;;;;;9.05;8.25;;;;;;;21.95;85.71;64274.47;5022786;28;20198;-77
2023/08/22 02:02:58;;;;;;;10.27;9.18;;;;;;;21.95;85.92;64273.94;5029154;28;20424;-77
2023/08/22 02:05:25;;;;;;;9.25;8.13;;;;;;;21.93;85.79;64272.38;5015187;28;20221;-78
2023/08/22 02:07:52;;;;;;;10.60;8.82;;;;;;;21.93;86.18;64269.78;5009667;28;20265;-77
2023/08/22 02:10:19;;;;;;;9.05;8.35;;;;;;;21.89;86.19;64267.69;5015716;28;20245;-76
2023/08/22 02:12:48;;;;;;;9.10;7.90;;;;;;;21.88;86.49;64266.63;5027826;28;20214;-77
2023/08/22 02:15:16;;;;;;;11.40;9.48;;;;;;;21.87;86.18;64266.09;5007861;28;20229;-77
2023/08/22 02:17:43;;;;;;;8.50;7.80;;;;;;;21.87;85.55;64260.41;5019458;28;20237;-77
2023/08/22 02:20:11;;;;;;;8.45;7.80;;;;;;;21.88;85.31;64266.63;5015932;28;20202;-77
2023/08/22 02:22:40;;;;;;;8.70;7.80;;;;;;;21.85;84.08;64261.44;5028047;28;20240;-78
2023/08/22 02:25:11;;;;;;;8.98;7.95;;;;;;;21.82;84.75;64258.28;5011046;28;20222;-78
2023/08/22 02:27:38;;;;;;;9.57;7.88;;;;;;;21.83;84.76;64259.34;5017270;28;20240;-79
2023/08/22 02:30:08;;;;;;;9.68;8.20;;;;;;;21.85;84.99;64258.84;5019154;28;20222;-80
2023/08/22 02:32:35;;;;;;;8.90;8.10;;;;;;;21.79;85.28;64252.56;5030898;28;20202;-78
2023/08/22 02:35:03;;;;;;;9.20;8.40;;;;;;;21.74;86.15;64250.44;5008297;28;20447;-78
2023/08/22 02:37:30;;;;;;;9.93;9.10;;;;;;;21.67;86.73;64248.31;4992684;28;20207;-80
2023/08/22 02:39:57;;;;;;;8.93;8.10;;;;;;;21.69;87.80;64242.63;5014371;28;20530;-77
2023/08/22 02:42:25;;;;;;;9.40;7.95;;;;;;;21.64;88.68;64244.66;5028065;28;20199;-79
2023/08/22 02:44:52;;;;;;;9.73;8.77;;;;;;;21.58;88.91;64235.78;5018246;28;20238;-81
2023/08/22 02:47:21;;;;;;;8.75;7.82;;;;;;;21.65;89.71;64243.63;5030104;28;20206;-80
2023/08/22 02:49:49;;;;;;;8.70;8.00;;;;;;;21.51;90.27;64223.28;5030211;28;20240;-78
2023/08/22 02:52:18;;;;;;;12.13;8.85;;;;;;;21.50;89.44;64224.84;5024250;28;20213;-78
2023/08/22 02:54:45;;;;;;;9.18;8.20;;;;;;;21.36;89.81;64213.34;5016160;28;20230;-76
2023/08/22 02:57:12;;;;;;;8.82;8.02;;;;;;;21.33;89.41;64209.69;5015468;28;20204;-78
2023/08/22 02:59:39;;;;;;;9.05;8.25;;;;;;;21.33;88.84;64207.59;5028798;28;20218;-78
2023/08/22 03:02:07;;;;;;;8.15;7.35;;;;;;;21.29;88.46;64208.09;5009449;28;20261;-78
2023/08/22 03:04:37;;;;;;;8.43;7.57;;;;;;;21.23;88.32;64196.63;5020946;28;20234;-79
2023/08/22 03:07:04;;;;;;;7.55;6.95;;;;;;;21.21;86.71;64197.16;5014910;28;20202;-79
2023/08/22 03:09:32;;;;;;;9.30;7.68;;;;;;;21.18;86.64;64188.81;5022934;28;20226;-79
2023/08/22 03:11:59;;;;;;;10.02;7.35;;;;;;;21.21;86.86;64194.56;5016159;28;20221;-77
2023/08/22 03:14:27;;;;;;;9.10;8.30;;;;;;;21.23;87.34;64194.03;5019772;28;20218;-78
2023/08/22 03:16:54;;;;;;;8.60;7.85;;;;;;;21.23;87.86;64196.63;5013032;28;20206;-77
2023/08/22 03:19:21;;;;;;;9.20;8.40;;;;;;;21.24;88.41;64197.69;5008589;28;20238;-77
2023/08/22 03:21:49;;;;;;;8.55;7.85;;;;;;;21.27;88.75;64203.41;5022030;28;20233;-77
2023/08/22 03:24:16;;;;;;;8.80;8.00;;;;;;;21.30;88.42;64198.75;5025504;28;20242;-78
2023/08/22 03:26:43;;;;;;;8.70;7.30;;;;;;;21.22;89.69;64198.72;5019017;28;20260;-77
2023/08/22 03:29:10;;;;;;;8.77;8.07;;;;;;;21.22;88.75;64198.72;5010450;28;20245;-78
2023/08/22 03:31:37;;;;;;;9.55;8.52;;;;;;;21.17;88.49;64192.97;5025243;28;20213;-77
2023/08/22 03:34:04;;;;;;;8.95;8.20;;;;;;;21.15;88.27;64188.81;5009768;28;20451;-77
2023/08/22 03:36:32;;;;;;;11.15;8.73;;;;;;;21.12;88.61;64188.25;5026828;28;20205;-77
2023/08/22 03:39:01;;;;;;;8.57;7.88;;;;;;;21.08;89.05;64181.50;5005742;28;20380;-77
2023/08/22 03:41:28;;;;;;;9.18;8.38;;;;;;;21.10;89.00;64185.66;5013075;28;20232;-77
2023/08/22 03:43:55;;;;;;;8.40;7.60;;;;;;;21.08;88.91;64180.97;5011145;28;20237;-76
2023/08/22 03:46:22;;;;;;;8.48;7.78;;;;;;;21.09;89.22;64179.44;5013756;28;20198;-77
2023/08/22 03:48:49;;;;;;;8.43;7.72;;;;;;;21.06;89.54;64179.41;5021636;28;20236;-78
2023/08/22 03:51:17;;;;;;;8.65;7.95;;;;;;;21.07;89.33;64183.03;5018181;28;20199;-78
2023/08/22 03:53:44;;;;;;;8.63;7.63;;;;;;;21.14;88.87;64187.75;5018361;28;20241;-76
2023/08/22 03:56:12;;;;;;;9.40;8.48;;;;;;;21.13;89.17;64184.13;5010896;28;20209;-78
2023/08/22 03:58:39;;;;;;;10.55;7.93;;;;;;;21.20;89.67;64201.28;5024229;28;20222;-76
2023/08/22 04:01:06;;;;;;;13.40;8.60;;;;;;;21.20;89.74;64194.03;5013005;28;20266;-77
2023/08/22 04:03:33;;;;;;;10.80;8.82;;;;;;;21.25;89.76;64201.31;5009160;28;20249;-78
2023/08/22 04:06:03;;;;;;;9.00;8.00;;;;;;;21.28;90.01;64204.97;5019786;28;20298;-77
2023/08/22 04:08:30;;;;;;;9.07;8.20;;;;;;;21.36;89.92;64210.75;5011778;28;20393;-78
2023/08/22 04:10:57;;;;;;;9.63;8.48;;;;;;;21.39;90.30;64218.53;5022794;28;20241;-76
2023/08/22 04:13:26;;;;;;;15.07;10.27;;;;;;;21.42;89.83;64217.00;5021935;28;20239;-77
2023/08/22 04:15:53;;;;;;;8.70;7.90;;;;;;;21.48;90.91;64225.34;5006543;28;20233;-76
2023/08/22 04:18:20;;;;;;;9.15;8.27;;;;;;;21.33;89.85;64212.78;5027307;28;20289;-76
2023/08/22 04:20:47;;;;;;;9.60;8.80;;;;;;;21.43;89.88;64218.03;5030321;28;20236;-77
2023/08/22 04:23:13;;;;;;;9.68;8.65;;;;;;;21.55;90.70;64235.25;5012036;28;20226;-77
2023/08/22 04:25:40;;;;;;;8.95;8.15;;;;;;;21.60;90.45;64238.41;5018376;28;20209;-78
2023/08/22 04:28:07;;;;;;;10.35;9.45;;;;;;;21.67;90.23;64245.19;5005288;28;20242;-77
2023/08/22 04:30:35;;;;;;;10.43;9.52;;;;;;;21.77;90.50;64253.06;5002974;28;20201;-77
2023/08/22 04:33:02;;;;;;;9.70;8.77;;;;;;;21.69;91.62;64245.22;5017775;28;20205;-78
2023/08/22 04:35:30;;;;;;;9.25;8.35;;;;;;;21.79;90.87;64255.16;5000585;28;20397;-78
2023/08/22 04:37:57;;;;;;;10.10;8.52;;;;;;;21.90;90.36;64266.66;5015165;28;20201;-78
2023/08/22 04:40:24;;;;;;;10.45;9.45;;;;;;;21.92;90.93;64265.63;5025388;28;20221;-78
2023/08/22 04:42:51;;;;;;;10.18;9.18;;;;;;;21.95;91.83;64271.88;5013882;28;20534;-79
2023/08/22 04:45:18;;;;;;;10.50;9.50;;;;;;;22.07;91.75;64287.00;5006969;28;20234;-77
2023/08/22 04:47:47;;;;;;;9.73;8.88;;;;;;;22.12;91.32;64292.25;5018706;28;20599;-78
2023/08/22 04:50:15;;;;;;;10.70;9.35;;;;;;;22.30;90.46;64308.44;5027523;28;20206;-77
2023/08/22 04:52:42;;;;;;;9.98;9.18;;;;;;;22.34;89.83;64314.72;5011448;28;20202;-77
2023/08/22 04:55:10;;;;;;;10.52;8.45;;;;;;;22.23;92.59;64303.72;5026872;28;20224;-77
2023/08/22 04:57:36;;;;;;;11.45;10.38;;;;;;;22.17;92.80;64294.88;5027890;28;20198;-78
2023/08/22 05:00:04;;;;;;;14.07;10.40;;;;;;;22.34;89.90;64315.25;5024225;28;20225;-77
2023/08/22 05:02:31;;;;;;;13.10;9.27;;;;;;;22.40;87.83;64318.91;5011994;28;20399;-76
2023/08/22 05:05:01;;;;;;;12.57;10.13;;;;;;;22.41;88.38;64322.03;5023779;28;20265;-78
2023/08/22 05:07:28;;;;;;;10.52;9.20;;;;;;;22.50;87.73;64328.84;5021188;28;20213;-77
2023/08/22 05:09:55;;;;;;;10.60;8.45;;;;;;;22.62;84.27;64341.41;5012647;28;20230;-78
2023/08/22 05:12:22;;;;;;;10.68;9.70;;;;;;;22.71;87.37;64345.63;5021138;28;20206;-78
2023/08/22 05:14:49;;;;;;;17.55;10.73;;;;;;;22.63;88.81;64342.97;5020389;28;20230;-78
2023/08/22 05:17:16;;;;;;;15.65;11.38;;;;;;;22.57;90.36;64338.78;5015021;28;20217;-79
2023/08/22 05:19:44;;;;;;;13.77;10.65;;;;;;;22.49;92.63;64330.38;5009140;28;20286;-78
2023/08/22 05:22:13;;;;;;;16.60;11.18;;;;;;;22.67;93.32;64349.22;5020298;28;20257;-79
2023/08/22 05:24:40;;;;;;;12.07;10.85;;;;;;;22.92;92.37;64375.91;5020487;28;20560;-80
2023/08/22 05:27:08;;;;;;;14.68;11.73;;;;;;;23.10;90.84;64393.69;5028212;28;20206;-79
2023/08/22 05:29:36;;;;;;;11.98;10.73;;;;;;;23.12;90.19;64393.69;5016101;28;20277;-79
2023/08/22 05:32:03;;;;;;;20.88;12.52;;;;;;;23.08;89.24;64386.91;5037944;28;20226;-79
2023/08/22 05:34:30;;;;;;;17.77;11.90;;;;;;;23.20;88.83;64401.53;5036317;28;20236;-79
2023/08/22 05:36:57;;;;;;;17.02;11.38;;;;;;;23.28;85.58;64412.53;5029964;28;20270;-80
2023/08/22 05:39:26;;;;;;;13.80;10.82;;;;;;;23.33;84.06;64415.66;5027612;28;20294;-79
2023/08/22 05:41:53;;;;;;;18.50;10.68;;;;;;;23.46;81.80;64429.28;5033435;28;20222;-80
2023/08/22 05:44:20;;;;;;;13.75;12.23;;;;;;;23.45;81.78;64427.72;5033073;28;20238;-79
2023/08/22 05:46:47;;;;;;;16.48;11.10;;;;;;;23.42;82.33;64427.69;5017948;28;20238;-79
2023/08/22 05:49:16;;;;;;;22.15;12.50;;;;;;;23.31;84.02;64413.59;5021081;28;20225;-79
2023/08/22 05:51:47;;;;;;;17.08;12.00;;;;;;;23.55;82.85;64438.69;5034598;28;20205;-81
2023/08/22 05:54:18;;;;;;;14.43;11.50;;;;;;;23.69;82.06;64455.94;5033628;28;20277;-82
2023/08/22 05:56:46;;;;;;;21.17;12.32;;;;;;;23.88;81.96;64472.72;5021938;28;20210;-81
2023/08/22 05:59:13;;;;;;;17.33;12.95;;;;;;;23.78;83.64;64462.25;5030037;28;20238;-79
2023/08/22 06:01:41;;;;;;;18.27;13.00;;;;;;;23.90;83.37;64477.91;5005644;28;20207;-80
2023/08/22 06:04:08;;;;;;;17.23;12.13;;;;;;;24.19;81.44;64505.19;5000789;28;20258;-80
2023/08/22 06:06:35;;;;;;;14.82;12.07;;;;;;;24.33;78.62;64519.31;5021015;28;20203;-79
2023/08/22 06:09:02;;;;;;;20.50;12.25;;;;;;;24.46;79.06;64536.03;5018100;28;20213;-80
2023/08/22 06:11:30;;;;;;;14.15;12.07;;;;;;;24.44;78.18;64533.41;5011238;28;20206;-80
2023/08/22 06:13:58;;;;;;;25.88;13.00;;;;;;;24.37;78.82;64524.00;5011308;28;20242;-79
2023/08/22 06:16:26;;;;;;;17.38;12.20;;;;;;;24.32;79.07;64518.25;5032815;28;20206;-80
2023/08/22 06:18:54;;;;;;;14.30;12.82;;;;;;;24.41;77.55;64527.66;5020004;28;20218;-78
2023/08/22 06:21:20;;;;;;;16.65;11.63;;;;;;;24.47;78.08;64533.97;5015201;28;20216;-79
2023/08/22 06:23:48;;;;;;;15.48;11.55;;;;;;;24.46;77.61;64538.13;5006054;28;20586;-80
2023/08/22 06:26:16;;;;;;;16.90;12.00;;;;;;;24.50;78.18;64537.09;5012565;28;20195;-80
2023/08/22 06:28:43;;;;;;;15.90;11.45;;;;;;;24.70;77.84;64558.59;5023959;28;20246;-80
2023/08/22 06:31:11;;;;;;;16.77;11.35;;;;;;;24.68;77.06;64556.47;5014717;28;20578;-79
2023/08/22 06:33:41;;;;;;;15.73;11.27;;;;;;;24.73;76.48;64561.22;5024156;28;20462;-80
2023/08/22 06:36:08;;;;;;;14.85;11.45;;;;;;;24.80;76.92;64566.44;5011172;28;20262;-81
2023/08/22 06:38:35;;;;;;;15.18;11.95;;;;;;;24.88;75.33;64576.91;5005939;28;20219;-79
2023/08/22 06:41:05;;;;;;;17.85;11.70;;;;;;;24.79;76.25;64564.88;5010931;28;20243;-82
2023/08/22 06:43:32;;;;;;;16.98;11.73;;;;;;;24.91;76.13;64583.19;5004807;28;20226;-79
2023/08/22 06:46:00;;;;;;;15.57;11.38;;;;;;;25.04;76.20;64594.19;5009655;28;20242;-80
2023/08/22 06:48:29;;;;;;;14.07;11.25;;;;;;;25.07;76.14;64594.22;5022631;28;20222;-78
2023/08/22 06:50:56;;;;;;;16.88;11.95;;;;;;;25.20;74.97;64609.91;5004576;28;20213;-79
2023/08/22 06:53:23;;;;;;;18.23;11.77;;;;;;;25.34;74.11;64624.56;5016481;28;20262;-79
2023/08/22 06:55:50;;;;;;;15.07;12.63;;;;;;;25.10;73.49;64602.56;5026797;28;20203;-80
2023/08/22 06:58:19;;;;;;;20.73;12.15;;;;;;;24.96;75.70;64588.41;5022820;28;20242;-79
2023/08/22 07:00:46;;;;;;;14.90;12.25;;;;;;;25.09;75.34;64598.91;5024402;28;20218;-80
2023/08/22 07:03:13;;;;;;;29.10;13.02;;;;;;;25.19;73.43;64614.59;5021809;28;20222;-78
2023/08/22 07:05:43;;;;;;;24.80;12.75;;;;;;;25.33;72.51;64624.06;5013934;28;20221;-79
2023/08/22 07:08:10;;;;;;;18.55;13.20;;;;;;;25.36;73.81;64629.81;5011407;28;20226;-79
2023/08/22 07:10:38;;;;;;;14.93;12.07;;;;;;;25.58;71.30;64652.88;5017520;28;20207;-79
2023/08/22 07:13:06;;;;;;;15.73;11.60;;;;;;;25.72;71.05;64664.41;5002246;28;20227;-80
2023/08/22 07:15:33;;;;;;;16.80;11.95;;;;;;;25.90;69.81;64685.88;5017187;28;20190;-79
2023/08/22 07:18:00;;;;;;;20.17;12.20;;;;;;;26.04;69.87;64697.97;5013430;28;20218;-80
2023/08/22 07:20:29;;;;;;;13.77;11.98;;;;;;;26.32;68.99;64732.03;5014823;28;20204;-79
2023/08/22 07:22:57;;;;;;;19.60;12.48;;;;;;;26.57;67.67;64750.94;5012798;28;20199;-79
2023/08/22 07:25:24;;;;;;;13.68;11.73;;;;;;;26.57;65.47;64750.41;5012460;28;20233;-78
2023/08/22 07:27:51;;;;;;;16.52;12.40;;;;;;;26.71;63.99;64770.84;5006623;28;20199;-78
2023/08/22 07:30:19;;;;;;;13.02;11.75;;;;;;;26.80;64.16;64774.53;5011270;28;20187;-79
2023/08/22 07:32:45;;;;;;;17.50;12.05;;;;;;;26.60;64.86;64754.06;5008883;28;20249;-79
2023/08/22 07:35:13;;;;;;;14.32;11.57;;;;;;;26.71;67.17;64765.09;5007060;28;20226;-80
2023/08/22 07:37:41;;;;;;;15.45;11.32;;;;;;;26.94;64.51;64797.59;5007452;28;20203;-79
2023/08/22 07:40:11;;;;;;;12.57;11.32;;;;;;;26.94;63.51;64792.34;5007962;28;20234;-80
2023/08/22 07:42:38;;;;;;;13.00;11.70;;;;;;;27.19;62.65;64823.28;5007567;28;20202;-79
2023/08/22 07:45:07;;;;;;;12.55;11.02;;;;;;;27.12;62.88;64815.94;5005917;28;20277;-79
2023/08/22 07:47:34;;;;;;;12.95;11.18;;;;;;;27.26;60.98;64825.41;5005741;28;20542;-78
2023/08/22 07:50:02;;;;;;;13.82;11.70;;;;;;;27.24;62.40;64818.59;5006918;28;20254;-79
2023/08/22 07:52:30;;;;;;;12.38;11.07;;;;;;;27.15;61.80;64814.38;5006151;28;20209;-79
2023/08/22 07:54:57;;;;;;;13.65;10.90;;;;;;;27.28;61.08;64830.13;5010089;28;20430;-79
2023/08/22 07:57:27;;;;;;;19.23;11.18;;;;;;;27.42;60.63;64844.31;5009234;28;20195;-79
2023/08/22 07:59:55;;;;;;;15.52;10.40;;;;;;;27.44;59.57;64852.16;5008455;28;20279;-79
2023/08/22 08:02:23;;;;;;;12.52;10.65;;;;;;;27.50;58.47;64850.59;5007613;28;20218;-76
2023/08/22 08:04:50;;;;;;;10.68;9.50;;;;;;;27.63;58.00;64864.25;5004562;28;20265;-79
2023/08/22 08:07:18;;;;;;;11.02;10.02;;;;;;;27.85;56.32;64889.97;5005058;28;20195;-79
2023/08/22 08:09:46;;;;;;;12.00;9.60;;;;;;;28.09;56.11;64914.66;5004899;28;20226;-78
2023/08/22 08:12:13;;;;;;;11.25;8.95;;;;;;;28.15;54.34;64921.47;5004578;28;20277;-80
2023/08/22 08:14:42;;;;;;;9.52;8.63;;;;;;;28.44;54.09;64948.75;5008782;28;20245;-81
2023/08/22 08:17:10;;;;;;;10.52;8.82;;;;;;;28.73;51.67;64978.72;5010357;28;20234;-79
2023/08/22 08:19:40;;;;;;;9.60;8.57;;;;;;;28.88;51.08;65002.88;5007728;28;20229;-80
2023/08/22 08:22:08;;;;;;;8.98;8.07;;;;;;;29.04;49.63;65011.81;5004150;28;20205;-79
2023/08/22 08:24:38;;;;;;;9.98;8.15;;;;;;;28.97;50.58;65009.72;5004208;28;20551;-77
2023/08/22 08:27:06;;;;;;;11.93;8.45;;;;;;;28.97;49.97;65007.09;5005341;28;20195;-78
2023/08/22 08:29:34;;;;;;;11.95;8.77;;;;;;;28.80;49.76;64988.69;5006785;28;20570;-79
2023/08/22 08:32:03;;;;;;;9.73;8.82;;;;;;;28.92;49.55;64998.69;5005715;28;20195;-78
2023/08/22 08:34:31;;;;;;;8.25;7.63;;;;;;;29.07;49.57;65019.69;5006214;28;20227;-80
2023/08/22 08:36:58;;;;;;;9.60;7.70;;;;;;;29.23;48.45;65033.88;5009806;28;20206;-79
2023/08/22 08:39:25;;;;;;;8.00;7.30;;;;;;;29.45;47.63;65057.00;5009432;28;20236;-79
2023/08/22 08:42:02;;;;;;;7.97;7.18;;;;;;;29.61;47.12;65073.28;5009155;28;20278;-79
2023/08/22 08:44:34;;;;;;;8.05;7.32;;;;;;;29.94;46.83;65108.00;5010433;28;20229;-82
2023/08/22 08:47:03;;;;;;;9.18;8.27;;;;;;;30.00;46.11;65114.84;5010391;28;20258;-81
2023/08/22 08:49:35;;;;;;;8.27;7.60;;;;;;;30.19;45.30;65132.19;5010361;28;20215;-82
2023/08/22 08:52:04;;;;;;;8.43;7.78;;;;;;;30.23;45.33;65139.03;5008740;28;20214;-80
2023/08/22 08:54:33;;;;;;;12.13;8.55;;;;;;;30.26;45.64;65141.66;5009161;28;20231;-81
2023/08/22 08:57:00;;;;;;;8.27;7.13;;;;;;;30.49;44.76;65166.34;5006672;28;20191;-81
2023/08/22 08:59:28;;;;;;;8.30;7.50;;;;;;;30.58;43.98;65175.84;5013089;28;20218;-80
2023/08/22 09:01:55;;;;;;;10.13;6.97;;;;;;;30.71;44.89;65186.34;5009725;28;20218;-80
2023/08/22 09:04:24;;;;;;;8.40;7.15;;;;;;;30.71;44.53;65191.09;5007659;28;20225;-80
2023/08/22 09:06:51;;;;;;;9.77;7.57;;;;;;;30.69;44.91;65186.34;5007734;28;20194;-81
2023/08/22 09:09:18;;;;;;;7.63;6.93;;;;;;;30.85;44.17;65201.09;5009994;28;20214;-82
2023/08/22 09:11:49;;;;;;;7.80;7.13;;;;;;;30.89;43.25;65207.94;5007652;28;20218;-80
2023/08/22 09:14:20;;;;;;;8.25;7.57;;;;;;;30.87;43.45;65205.31;5007948;28;20249;-80
2023/08/22 09:16:47;;;;;;;9.15;7.28;;;;;;;30.63;43.34;65183.72;5007203;28;20267;-80
2023/08/22 09:19:15;;;;;;;8.13;7.35;;;;;;;30.63;42.14;65181.09;5006632;28;20252;-79
2023/08/22 09:21:59;;;;;;;7.95;7.20;;;;;;;30.42;43.38;65159.03;5007668;28;20203;-81
2023/08/22 09:24:27;;;;;;;12.25;7.90;;;;;;;30.48;42.50;65162.69;5008903;28;20226;-80
2023/08/22 09:26:54;;;;;;;13.43;7.93;;;;;;;30.53;43.50;65167.41;5013342;28;20553;-82
2023/08/22 09:29:28;;;;;;;8.80;7.47;;;;;;;30.77;41.32;65194.78;5009415;28;20567;-82
2023/08/22 09:32:04;;;;;;;7.07;6.57;;;;;;;30.92;40.61;65211.09;5007812;28;20203;-80
2023/08/22 09:34:32;;;;;;;16.50;7.15;;;;;;;30.84;40.65;65202.16;5008191;28;20221;-79
2023/08/22 09:37:01;;;;;;;9.55;6.57;;;;;;;30.61;39.30;65175.84;5009695;28;21132;-80
2023/08/22 09:39:30;;;;;;;9.27;6.50;;;;;;;30.66;40.17;65180.56;5007512;28;20559;-80
2023/08/22 09:41:57;;;;;;;7.32;6.50;;;;;;;30.93;39.91;65214.25;5007372;28;20209;-79
2023/08/22 09:44:25;;;;;;;8.35;6.22;;;;;;;30.88;38.46;65209.50;5009697;28;20206;-80
2023/08/22 09:46:53;;;;;;;6.45;5.85;;;;;;;31.00;37.64;65222.13;5010836;28;20226;-80
2023/08/22 09:49:21;;;;;;;6.88;5.80;;;;;;;31.09;37.53;65236.34;5007998;28;20282;-78
2023/08/22 09:51:49;;;;;;;6.03;5.45;;;;;;;31.26;37.20;65248.97;5006721;28;20207;-79
2023/08/22 09:54:18;;;;;;;6.47;6.07;;;;;;;31.49;38.48;65273.19;5014985;28;20257;-80
2023/08/22 09:56:46;;;;;;;8.27;5.68;;;;;;;31.73;36.93;65292.66;5014198;28;20259;-81
2023/08/22 09:59:15;;;;;;;5.78;5.32;;;;;;;31.82;36.34;65304.75;5012069;28;20221;-81
2023/08/22 10:01:42;;;;;;;6.93;6.32;;;;;;;31.62;36.97;65290.03;5004929;28;20237;-80
2023/08/22 10:04:12;;;;;;;7.00;6.50;;;;;;;31.49;37.26;65271.09;5006675;28;20246;-78
2023/08/22 10:06:40;;;;;;;6.60;6.10;;;;;;;31.42;36.55;65260.56;5006003;28;20231;-81
2023/08/22 10:09:10;;;;;;;6.35;5.82;;;;;;;31.36;36.54;65254.75;5005292;28;20278;-79
2023/08/22 10:11:43;;;;;;;7.32;6.07;;;;;;;31.43;37.07;65264.75;5004474;28;20201;-80
2023/08/22 10:14:14;;;;;;;7.03;6.38;;;;;;;31.34;37.05;65254.78;5007103;28;20225;-79
2023/08/22 10:16:42;;;;;;;5.60;5.20;;;;;;;31.66;36.83;65294.25;5007005;28;20206;-79
2023/08/22 10:19:10;;;;;;;7.03;5.68;;;;;;;31.88;35.87;65311.09;5008113;28;20264;-80
2023/08/22 10:21:43;;;;;;;5.63;5.15;;;;;;;32.00;34.60;65326.34;5007159;28;20253;-82
2023/08/22 10:24:21;;;;;;;6.50;5.93;;;;;;;32.07;35.09;65331.63;5003694;28;20265;-82
2023/08/22 10:26:59;;;;;;;5.90;5.45;;;;;;;32.31;34.97;65356.34;5006678;28;20223;-80
2023/08/22 10:29:31;;;;;;;5.38;4.97;;;;;;;32.41;33.64;65370.06;5013161;28;20234;-78
2023/08/22 10:32:22;;;;;;;6.00;5.35;;;;;;;32.42;34.67;65368.50;5012268;28;20198;-79
2023/08/22 10:35:23;;;;;;;6.38;5.78;;;;;;;32.81;34.95;65411.16;5001436;28;20228;-82
2023/08/22 10:37:52;;;;;;;5.65;5.10;;;;;;;32.95;33.67;65423.81;5003964;28;20209;-82
2023/08/22 10:40:30;;;;;;;5.57;5.00;;;;;;;33.08;34.55;65442.78;5007058;28;20519;-81
2023/08/22 10:43:09;;;;;;;6.20;5.80;;;;;;;33.23;34.01;65455.41;4998289;28;20266;-78
2023/08/22 10:45:52;;;;;;;7.47;6.35;;;;;;;33.35;34.47;65468.06;5000498;28;20276;-82
2023/08/22 10:48:22;;;;;;;7.28;5.72;;;;;;;33.22;33.42;65457.53;5007184;28;20254;-81
2023/08/22 10:50:50;;;;;;;6.72;6.22;;;;;;;33.39;33.57;65467.00;5009465;28;20222;-80
2023/08/22 10:53:21;;;;;;;6.60;5.78;;;;;;;33.42;32.16;65478.06;5009600;28;20225;-80
2023/08/22 10:55:49;;;;;;;5.43;5.15;;;;;;;33.20;33.09;65450.16;5001942;28;20229;-80
2023/08/22 10:58:43;;;;;;;5.90;5.40;;;;;;;33.14;32.57;65445.94;5004742;28;20218;-79
2023/08/22 11:01:15;;;;;;;6.53;5.85;;;;;;;33.07;33.61;65439.09;5003029;28;20214;-80
2023/08/22 11:03:42;;;;;;;7.47;5.60;;;;;;;33.33;34.58;65463.31;5008016;28;20237;-80
2023/08/22 11:06:18;;;;;;;6.05;5.65;;;;;;;33.63;34.52;65500.75;5010113;28;20226;-81
2023/08/22 11:08:45;;;;;;;9.15;6.15;;;;;;;33.82;32.27;65515.50;5009702;28;20222;-80
2023/08/22 11:11:19;;;;;;;6.60;5.97;;;;;;;33.73;32.71;65506.00;5002377;28;20484;-80
2023/08/22 11:13:48;;;;;;;7.20;6.15;;;;;;;33.50;32.41;65481.22;5008547;28;20213;-82
2023/08/22 11:16:17;;;;;;;7.25;6.57;;;;;;;33.65;32.34;65497.56;5004748;28;20489;-81
2023/08/22 11:18:48;;;;;;;5.97;5.65;;;;;;;33.55;33.94;65483.88;5014662;28;20231;-79
2023/08/22 11:21:18;;;;;;;6.80;6.13;;;;;;;33.87;34.17;65520.22;5011370;28;20229;-81
2023/08/22 11:23:46;;;;;;;6.32;5.80;;;;;;;33.64;32.95;65499.16;5006745;28;20237;-79
2023/08/22 11:26:13;;;;;;;6.85;6.28;;;;;;;33.39;33.15;65467.53;5007939;28;20238;-81
2023/08/22 11:28:43;;;;;;;9.00;6.38;;;;;;;33.16;33.58;65442.75;5006802;28;20223;-82
2023/08/22 11:31:20;;;;;;;7.43;5.63;;;;;;;33.14;33.90;65440.63;5003414;28;20195;-79
2023/08/22 11:33:51;;;;;;;11.60;6.45;;;;;;;33.29;33.95;65456.47;5007003;28;20222;-80